Nearby METAR Reports

 

KSLC - Salt Lake City, Utah, USA
Distance from station: SW 8mi, 13km
Updated: Mon, 20-Nov-2017 6:54pm MST
Overcast
Overcast
 Wind from N
Wind: N 8 mph , 13 km/h
Temperature: 45°F , 7°C
Wind Chill: 41°F , 5°C
Dew Point: 36°F , 2°C
Humidity: 71%
Barometer: 30.13 inHg , 1020.3 hPa
Clouds: Overcast
Visibility: 10 miles , 16 km
Cloud details: Few Clouds 4000 ft
Mostly cloudy 6000 ft
Overcast 10000 ft
2017/11/21 01:54 KSLC 210154Z 35007KT 10SM FEW040 BKN060 OVC100 07/02 A3013 RMK AO2 SLP199 T00720022 VISNO NW RNWY
KU42 - Salt Lake Muni, Utah, USA
Distance from station: SSW 18mi, 28km
Updated: Mon, 20-Nov-2017 7:15pm MST
Overcast
Overcast
 Wind from NW
Wind: NW 8 mph , 13 km/h
Temperature: 43°F , 6°C
Wind Chill: 38°F , 3°C
Dew Point: 36°F , 2°C
Humidity: 76%
Barometer: 30.14 inHg , 1020.7 hPa
Clouds: Overcast
Visibility: 10 miles , 16 km
Cloud details: Overcast 5500 ft
2017/11/21 02:15 KU42 210215Z AUTO 32007KT 10SM OVC055 06/02 A3014 RMK AO1 T00610017
 
KHIF - Hill Afb/Ogden, Utah, USA
Distance from station: NNW 19mi, 30km
Updated: Mon, 20-Nov-2017 6:58pm MST
Overcast
Overcast
 Wind from calm
Wind: Calm
Temperature: 41°F , 5°C
Dew Point: 32°F , 0°C
Humidity: 70%
Barometer: 30.12 inHg , 1020 hPa
Clouds: Overcast
Visibility: 10 miles , 16 km
Cloud details: Overcast 4700 ft
2017/11/21 01:58 KHIF 210158Z 00000KT 10SM OVC047 05/00 A3012 RMK AO2A SLP200 T00520002
KOGD - Ogden, Utah, USA
Distance from station: NNW 25mi, 40km
Updated: Mon, 20-Nov-2017 6:53pm MST
Overcast
Overcast
 Wind from WNW
Wind: WNW 3 mph , 6 km/h
Temperature: 41°F , 5°C
Dew Point: 32°F , 0°C
Humidity: 70%
Barometer: 30.12 inHg , 1020 hPa
Clouds: Overcast
Visibility: 10 miles , 16 km
Cloud details: Overcast 5000 ft
2017/11/21 01:53 KOGD 210153Z 29003KT 10SM OVC050 05/00 A3012 RMK AO2 SLP200 T00500000
 
K36U - Heber/Russ Mcdon, Utah, USA
Distance from station: SE 34mi, 55km
Updated: Wed, 11-Oct-2017 6:50pm MDT
NOT Current
Clear
Clear
 Wind from SSW
Wind: SSW 10 mph , 17 km/h, Gust: 18 mph , 30 km/h
Temperature: 63°F , 17°C
Dew Point: 16°F , -9°C
Humidity: 16%
Barometer: 29.87 inHg , 1011.5 hPa
Clouds: Clear
Visibility: 10 miles , 16 km
2017/10/12 00:50 K36U 120050Z AUTO 21009G16KT 10SM CLR 17/M09 A2987 RMK AO2
KPVU - Provo Muni, Utah, USA
Distance from station: S 45mi, 72km
Updated: Mon, 20-Nov-2017 6:56pm MST
Overcast
Overcast
 Wind from N
Wind: N 5 mph , 7 km/h
Temperature: 43°F , 6°C
Wind Chill: 40°F , 4°C
Dew Point: 37°F , 3°C
Humidity: 81%
Barometer: 30.14 inHg , 1020.7 hPa
Clouds: Overcast
Visibility: 10 miles , 16 km
Cloud details: Overcast 6500 ft
2017/11/21 01:56 KPVU 210156Z 01004KT 10SM OVC065 06/03 A3014 RMK AO2 SLP212 T00610028